Time;durP1;ratioP1;P1;durP2;ratioP2;P2;SDS_P1;SDS_P2;PMS_P1;PMS_P2;Temp;Humidity;BMP_temperature;BMP_pressure;BME280_temperature;BME280_humidity;BME280_pressure;Samples;Min_cycle;Max_cycle;Signal;HPM_P1;HPM_P2
2021/05/01 00:01:41;;;;;;;26.90;13.50;;;;;;;6.62;100.00;101384.59;3562825;40;20042;-60
2021/05/01 00:04:07;;;;;;;22.83;12.35;;;;;;;6.68;100.00;101379.84;3559458;40;20412;-59
2021/05/01 00:06:33;;;;;;;22.38;12.95;;;;;;;6.63;100.00;101377.47;3560981;40;20045;-60
2021/05/01 00:09:00;;;;;;;30.00;13.07;;;;;;;6.62;100.00;101381.94;3561354;40;21114;-59
2021/05/01 00:11:26;;;;;;;21.45;12.50;;;;;;;6.59;100.00;101379.44;3560514;40;20426;-61
2021/05/01 00:13:55;;;;;;;26.38;13.77;;;;;;;6.56;100.00;101382.31;3561615;40;20045;-59
2021/05/01 00:16:22;;;;;;;24.85;14.10;;;;;;;6.53;100.00;101379.84;3561259;40;20068;-60
2021/05/01 00:18:48;;;;;;;22.90;13.90;;;;;;;6.48;100.00;101376.63;3561617;40;20106;-60
2021/05/01 00:21:13;;;;;;;22.83;13.98;;;;;;;6.48;100.00;101373.94;3563562;40;20055;-61
2021/05/01 00:23:39;;;;;;;21.83;13.43;;;;;;;6.55;100.00;101379.75;3571122;40;20069;-59
2021/05/01 00:26:06;;;;;;;41.15;15.65;;;;;;;6.56;100.00;101371.63;3570920;40;20061;-59
2021/05/01 00:28:32;;;;;;;25.55;13.55;;;;;;;6.54;100.00;101362.84;3570992;40;20640;-59
2021/05/01 00:30:58;;;;;;;25.75;13.73;;;;;;;6.54;100.00;101360.19;3571068;40;20388;-61
2021/05/01 00:33:24;;;;;;;26.48;15.15;;;;;;;6.57;100.00;101362.66;3570168;40;20060;-60
2021/05/01 00:35:50;;;;;;;25.15;14.00;;;;;;;6.55;100.00;101358.34;3570863;40;20041;-59
2021/05/01 00:38:16;;;;;;;25.98;14.20;;;;;;;6.56;100.00;101355.59;3570152;40;20033;-60
2021/05/01 00:40:43;;;;;;;24.95;13.70;;;;;;;6.54;100.00;101352.16;3570157;40;20090;-60
2021/05/01 00:43:09;;;;;;;24.55;15.52;;;;;;;6.51;100.00;101347.00;3570569;40;20142;-59
2021/05/01 00:45:35;;;;;;;24.15;13.40;;;;;;;6.57;100.00;101349.28;3571781;40;20048;-59
2021/05/01 00:48:01;;;;;;;22.67;14.80;;;;;;;6.48;100.00;101345.38;3569891;40;20049;-59
2021/05/01 00:50:27;;;;;;;28.33;15.20;;;;;;;6.53;100.00;101345.09;3570830;40;20056;-59
2021/05/01 00:52:53;;;;;;;28.35;15.30;;;;;;;6.59;100.00;101339.34;3570432;40;20076;-61
2021/05/01 00:55:20;;;;;;;31.08;16.30;;;;;;;6.54;100.00;101340.63;3570494;40;20052;-59
2021/05/01 00:57:46;;;;;;;27.25;16.48;;;;;;;6.47;100.00;101334.78;3571028;40;20041;-59
2021/05/01 01:00:35;;;;;;;28.85;16.75;;;;;;;6.50;100.00;101345.28;3570163;40;20064;-59
2021/05/01 01:03:01;;;;;;;33.83;18.45;;;;;;;6.54;100.00;101337.94;3569799;40;20041;-59
2021/05/01 01:05:27;;;;;;;31.55;19.08;;;;;;;6.47;100.00;101340.97;3570497;40;20305;-59
2021/05/01 01:07:53;;;;;;;36.55;21.48;;;;;;;6.45;100.00;101332.22;3570529;40;20052;-60
2021/05/01 01:10:19;;;;;;;39.50;24.35;;;;;;;6.41;100.00;101340.53;3570981;40;20106;-59
2021/05/01 01:12:45;;;;;;;38.67;25.15;;;;;;;6.42;100.00;101342.22;3570145;40;20288;-60
2021/05/01 01:15:23;;;;;;;42.60;24.67;;;;;;;6.39;100.00;101337.06;3570682;40;20049;-60
2021/05/01 01:17:49;;;;;;;41.65;25.38;;;;;;;6.36;100.00;101331.94;3571300;40;20064;-59
2021/05/01 01:20:15;;;;;;;40.47;25.55;;;;;;;6.38;100.00;101333.56;3570868;40;20052;-58
2021/05/01 01:22:41;;;;;;;41.70;25.35;;;;;;;6.35;100.00;101328.41;3571725;40;20060;-59
2021/05/01 01:25:08;;;;;;;45.00;26.08;;;;;;;6.41;100.00;101335.19;3570609;40;20071;-60
2021/05/01 01:27:35;;;;;;;40.42;26.35;;;;;;;6.40;100.00;101333.44;3569887;40;20046;-59
2021/05/01 01:30:03;;;;;;;42.03;26.10;;;;;;;6.46;100.00;101333.06;3570611;40;20045;-60
2021/05/01 01:32:29;;;;;;;42.15;25.95;;;;;;;6.37;100.00;101333.66;3570525;40;20057;-59
2021/05/01 01:34:56;;;;;;;41.47;25.63;;;;;;;6.35;100.00;101335.56;3570296;40;20153;-60
2021/05/01 01:37:22;;;;;;;42.08;24.65;;;;;;;6.28;100.00;101337.75;3570421;40;20153;-59
2021/05/01 01:39:49;;;;;;;41.88;26.35;;;;;;;6.28;100.00;101338.59;3571495;40;20041;-59
2021/05/01 01:42:15;;;;;;;41.42;26.50;;;;;;;6.26;100.00;101343.19;3569610;40;20041;-60
2021/05/01 01:44:41;;;;;;;45.03;27.13;;;;;;;6.35;100.00;101335.56;3570717;40;20408;-59
2021/05/01 01:47:07;;;;;;;48.00;26.58;;;;;;;6.30;100.00;101335.84;3570213;40;20073;-60
2021/05/01 01:49:34;;;;;;;49.20;27.63;;;;;;;6.26;100.00;101337.84;3570154;40;20053;-60
2021/05/01 01:52:00;;;;;;;47.97;29.55;;;;;;;6.19;100.00;101341.88;3570531;40;20060;-58
2021/05/01 01:54:26;;;;;;;50.45;27.60;;;;;;;6.21;100.00;101339.09;3569485;40;20061;-59
2021/05/01 01:56:53;;;;;;;48.53;29.30;;;;;;;6.15;100.00;101324.31;3570729;40;20045;-59
2021/05/01 01:59:19;;;;;;;52.90;28.13;;;;;;;6.14;100.00;101336.81;3569476;40;20045;-61
2021/05/01 02:01:44;;;;;;;45.13;27.65;;;;;;;6.10;100.00;101337.97;3570122;40;20048;-59
2021/05/01 02:04:10;;;;;;;43.53;25.50;;;;;;;6.15;100.00;101329.66;3570530;40;20068;-59
2021/05/01 02:06:36;;;;;;;47.35;26.40;;;;;;;6.16;100.00;101325.19;3569731;40;20041;-60
2021/05/01 02:09:03;;;;;;;47.92;27.80;;;;;;;6.06;100.00;101335.56;3570947;40;20048;-59
2021/05/01 02:11:29;;;;;;;48.05;29.65;;;;;;;6.06;100.00;101330.22;3570956;40;20057;-59
2021/05/01 02:13:56;;;;;;;46.08;27.30;;;;;;;6.09;100.00;101328.22;3569540;40;20119;-59
2021/05/01 02:16:22;;;;;;;49.60;29.35;;;;;;;6.07;100.00;101332.81;3569995;40;20057;-59
2021/05/01 02:19:34;;;;;;;51.30;27.70;;;;;;;6.05;100.00;101325.81;3606496;23;20052;-61
2021/05/01 02:22:00;;;;;;;49.38;29.17;;;;;;;6.07;100.00;101323.94;3550659;40;20066;-60
2021/05/01 02:24:26;;;;;;;43.13;26.80;;;;;;;6.10;100.00;101321.06;3551179;40;20042;-61
2021/05/01 02:26:52;;;;;;;49.55;31.02;;;;;;;6.06;100.00;101324.88;3551618;40;20057;-59
2021/05/01 02:29:19;;;;;;;47.45;26.85;;;;;;;6.06;100.00;101319.53;3550956;40;20519;-61
2021/05/01 02:31:45;;;;;;;56.22;29.80;;;;;;;5.96;100.00;101324.56;3551249;40;20054;-59
2021/05/01 02:34:11;;;;;;;51.20;29.83;;;;;;;5.93;100.00;101327.41;3550010;40;20050;-61
2021/05/01 02:36:37;;;;;;;51.78;29.15;;;;;;;5.83;100.00;101319.13;3547056;40;20065;-60
2021/05/01 02:39:04;;;;;;;53.17;29.98;;;;;;;5.84;100.00;101326.16;3550966;40;20038;-58
2021/05/01 02:41:30;;;;;;;48.95;29.08;;;;;;;5.86;100.00;101329.63;3550547;40;20046;-59
2021/05/01 02:43:56;;;;;;;42.17;25.70;;;;;;;5.80;100.00;101319.31;3550948;40;20061;-59
2021/05/01 02:46:23;;;;;;;49.15;27.17;;;;;;;5.77;100.00;101324.81;3547377;40;20160;-59
2021/05/01 02:48:49;;;;;;;50.55;27.42;;;;;;;5.73;100.00;101312.63;3550223;40;20070;-59
2021/05/01 02:51:15;;;;;;;48.90;28.00;;;;;;;5.66;100.00;101319.28;3548784;40;20072;-59
2021/05/01 02:53:41;;;;;;;46.13;27.40;;;;;;;5.69;100.00;101313.75;3552102;40;20054;-60
2021/05/01 02:56:07;;;;;;;38.58;25.40;;;;;;;5.63;100.00;101306.13;3550865;40;20420;-61
2021/05/01 02:58:33;;;;;;;41.33;23.55;;;;;;;5.59;100.00;101305.44;3551660;40;20398;-59
2021/05/01 03:00:59;;;;;;;42.92;25.60;;;;;;;5.55;100.00;101307.44;3550635;40;20056;-58
2021/05/01 03:03:26;;;;;;;44.85;25.52;;;;;;;5.50;100.00;101296.16;3550801;40;20085;-60
2021/05/01 03:05:52;;;;;;;40.30;24.73;;;;;;;5.45;100.00;101303.63;3550598;40;20124;-59
2021/05/01 03:08:18;;;;;;;49.10;24.98;;;;;;;5.42;100.00;101303.81;3550757;40;20315;-58
2021/05/01 03:10:44;;;;;;;38.85;24.90;;;;;;;5.40;100.00;101297.69;3551213;40;20336;-59
2021/05/01 03:13:10;;;;;;;42.55;25.35;;;;;;;5.34;100.00;101295.38;3550383;40;20049;-59
2021/05/01 03:15:36;;;;;;;41.78;25.08;;;;;;;5.32;100.00;101291.97;3627630;22;20064;-58
2021/05/01 03:18:02;;;;;;;46.13;23.98;;;;;;;5.31;100.00;101295.56;3560567;40;20408;-57
2021/05/01 03:20:29;;;;;;;40.38;23.90;;;;;;;5.22;100.00;101299.63;3560459;40;20065;-59
2021/05/01 03:22:55;;;;;;;39.78;23.90;;;;;;;5.25;100.00;101300.31;3560114;40;20046;-60
2021/05/01 03:25:21;;;;;;;43.10;24.48;;;;;;;5.17;100.00;101302.59;3559735;40;20073;-59
2021/05/01 03:27:47;;;;;;;36.53;22.95;;;;;;;5.18;100.00;101295.41;3560209;40;20037;-58
2021/05/01 03:30:16;;;;;;;39.20;23.23;;;;;;;5.10;100.00;101295.88;3556611;40;20155;-59
2021/05/01 03:32:42;;;;;;;37.80;24.00;;;;;;;5.09;100.00;101292.38;3561560;40;20074;-61
2021/05/01 03:35:10;;;;;;;47.00;23.83;;;;;;;5.08;100.00;101289.78;3559874;40;20042;-59
2021/05/01 03:37:37;;;;;;;44.92;23.73;;;;;;;4.99;100.00;101291.19;3561969;40;21017;-59
2021/05/01 03:40:04;;;;;;;43.35;23.65;;;;;;;4.94;100.00;101295.06;3561459;40;20057;-59
2021/05/01 03:42:30;;;;;;;45.08;24.85;;;;;;;4.90;100.00;101295.25;3560901;40;20037;-59
2021/05/01 03:44:56;;;;;;;39.70;22.73;;;;;;;4.83;100.00;101288.53;3631592;23;20063;-59
2021/05/01 03:47:22;;;;;;;33.22;21.17;;;;;;;4.86;100.00;101296.38;3569298;40;20057;-60
2021/05/01 03:49:48;;;;;;;39.13;21.63;;;;;;;4.87;100.00;101292.75;3571346;40;20049;-59
2021/05/01 03:52:14;;;;;;;40.22;21.45;;;;;;;4.87;100.00;101298.09;3571407;40;20392;-59
2021/05/01 03:54:41;;;;;;;40.50;22.60;;;;;;;4.81;100.00;101293.09;3571845;40;20053;-59
2021/05/01 03:57:07;;;;;;;37.97;21.98;;;;;;;4.82;100.00;101300.16;3570906;40;20109;-60
2021/05/01 03:59:33;;;;;;;37.00;21.65;;;;;;;4.81;100.00;101293.09;3570443;40;20292;-60
2021/05/01 04:01:59;;;;;;;39.72;23.80;;;;;;;4.78;100.00;101293.25;3570819;40;20049;-60
2021/05/01 04:04:27;;;;;;;43.63;22.70;;;;;;;4.75;100.00;101288.09;3571737;40;20417;-59
2021/05/01 04:06:53;;;;;;;36.55;22.33;;;;;;;4.69;100.00;101293.81;3570427;40;20048;-59
2021/05/01 04:09:19;;;;;;;39.17;21.77;;;;;;;4.73;100.00;101295.34;3569870;40;20065;-60
2021/05/01 04:11:45;;;;;;;39.78;21.90;;;;;;;4.79;100.00;101292.31;3571210;40;20045;-60
2021/05/01 04:14:11;;;;;;;37.97;22.75;;;;;;;4.71;100.00;101298.09;3570422;40;20089;-59
2021/05/01 04:16:37;;;;;;;41.63;25.08;;;;;;;4.74;100.00;101297.03;3571240;40;20443;-60
2021/05/01 04:19:03;;;;;;;45.50;23.80;;;;;;;4.76;100.00;101292.50;3570739;40;20048;-59
2021/05/01 04:21:29;;;;;;;43.20;25.45;;;;;;;4.73;100.00;101290.03;3569647;40;20057;-59
2021/05/01 04:23:55;;;;;;;40.42;24.30;;;;;;;4.71;100.00;101297.22;3569572;40;20138;-60
2021/05/01 04:26:21;;;;;;;48.22;25.33;;;;;;;4.74;100.00;101299.72;3569870;40;20057;-59
2021/05/01 04:28:50;;;;;;;38.03;24.85;;;;;;;4.73;100.00;101301.53;3570997;40;20061;-59
2021/05/01 04:31:16;;;;;;;40.35;24.85;;;;;;;4.72;100.00;101304.28;3571113;40;20415;-58
2021/05/01 04:33:42;;;;;;;43.58;24.63;;;;;;;4.72;100.00;101298.97;3570537;40;20143;-58
2021/05/01 04:36:08;;;;;;;45.88;25.60;;;;;;;4.68;100.00;101305.41;3569564;40;20049;-59
2021/05/01 04:38:34;;;;;;;51.13;27.23;;;;;;;4.68;100.00;101294.75;3569684;40;20041;-59
2021/05/01 04:41:00;;;;;;;47.67;25.23;;;;;;;4.80;100.00;101307.41;3570566;40;20055;-59
2021/05/01 04:43:27;;;;;;;49.83;25.08;;;;;;;4.82;100.00;101302.81;3570642;40;20053;-59
2021/05/01 04:45:55;;;;;;;40.75;25.27;;;;;;;4.82;100.00;101300.16;3569612;40;20127;-60
2021/05/01 04:48:21;;;;;;;43.20;24.58;;;;;;;4.80;100.00;101302.06;3570018;40;20170;-60
2021/05/01 04:50:49;;;;;;;48.20;24.77;;;;;;;4.79;100.00;101316.34;3571303;40;20049;-58
2021/05/01 04:53:15;;;;;;;41.13;24.92;;;;;;;4.81;100.00;101318.91;3570895;40;20093;-59
2021/05/01 04:55:41;;;;;;;40.58;24.15;;;;;;;4.83;100.00;101315.22;3571855;40;20053;-59
2021/05/01 04:58:07;;;;;;;42.00;25.50;;;;;;;4.87;100.00;101324.75;3569806;40;20079;-60
2021/05/01 05:00:33;;;;;;;39.05;23.67;;;;;;;4.90;100.00;101316.59;3568335;40;20429;-59
2021/05/01 05:03:00;;;;;;;37.05;22.58;;;;;;;5.05;100.00;101319.28;3570020;40;20304;-60
2021/05/01 05:05:26;;;;;;;37.28;24.10;;;;;;;5.02;100.00;101322.13;3572009;40;20303;-58
2021/05/01 05:07:52;;;;;;;40.53;23.95;;;;;;;5.03;100.00;101324.72;3570184;40;20045;-59
2021/05/01 05:10:18;;;;;;;42.03;25.50;;;;;;;4.96;100.00;101323.38;3570327;40;20127;-59
2021/05/01 05:12:46;;;;;;;36.50;24.38;;;;;;;4.96;100.00;101326.03;3568462;40;20033;-60
2021/05/01 05:15:12;;;;;;;44.15;24.38;;;;;;;5.05;100.00;101324.63;3570389;40;20049;-58
2021/05/01 05:17:38;;;;;;;38.53;23.98;;;;;;;5.08;100.00;101324.47;3570949;40;20130;-60
2021/05/01 05:20:07;;;;;;;38.47;22.90;;;;;;;5.07;100.00;101326.25;3570012;40;20081;-60
2021/05/01 05:22:33;;;;;;;39.78;23.77;;;;;;;5.13;100.00;101326.88;3570563;40;20057;-59
2021/05/01 05:24:59;;;;;;;44.45;25.60;;;;;;;5.12;100.00;101323.31;3571399;40;20049;-59
2021/05/01 05:27:26;;;;;;;43.72;24.85;;;;;;;5.15;100.00;101323.13;3570667;40;20061;-60
2021/05/01 05:29:52;;;;;;;39.50;24.88;;;;;;;5.18;100.00;101325.66;3571567;40;20565;-59
2021/05/01 05:32:19;;;;;;;46.65;24.05;;;;;;;5.27;100.00;101329.59;3569693;40;20057;-59
2021/05/01 05:34:45;;;;;;;39.72;23.95;;;;;;;5.32;100.00;101334.66;3570027;40;20097;-60
2021/05/01 05:37:12;;;;;;;33.97;24.23;;;;;;;5.38;100.00;101334.28;3570684;40;20134;-60
2021/05/01 05:39:38;;;;;;;40.17;22.98;;;;;;;5.36;100.00;101331.72;3570209;40;20049;-60
2021/05/01 05:42:06;;;;;;;40.83;23.13;;;;;;;5.51;100.00;101339.78;3570055;40;20441;-59
2021/05/01 05:44:32;;;;;;;40.30;24.15;;;;;;;5.76;100.00;101339.16;3569582;40;20110;-59
2021/05/01 05:46:58;;;;;;;34.83;22.58;;;;;;;5.57;100.00;101339.41;3569949;40;20053;-59
2021/05/01 05:49:24;;;;;;;33.13;21.92;;;;;;;5.67;100.00;101345.03;3571285;40;20054;-59
2021/05/01 05:51:50;;;;;;;40.28;22.38;;;;;;;5.74;100.00;101347.25;3570139;40;20079;-60
2021/05/01 05:54:17;;;;;;;41.53;23.50;;;;;;;5.86;100.00;101345.66;3570761;40;20106;-59
2021/05/01 05:56:43;;;;;;;35.65;22.05;;;;;;;5.96;100.00;101346.81;3571507;40;20325;-60
2021/05/01 06:01:40;;;;;;;35.65;21.73;;;;;;;5.96;100.00;101348.59;3607173;23;20046;-58
2021/05/01 06:04:09;;;;;;;32.28;20.52;;;;;;;6.01;100.00;101343.88;3570931;40;20082;-59
2021/05/01 06:06:42;;;;;;;32.75;21.38;;;;;;;6.11;100.00;101349.50;3570440;40;20060;-59
2021/05/01 06:09:08;;;;;;;29.08;19.48;;;;;;;6.34;100.00;101350.72;3570777;40;20033;-60
2021/05/01 06:11:34;;;;;;;34.70;21.00;;;;;;;6.48;100.00;101342.72;3571602;40;20037;-59
2021/05/01 06:14:03;;;;;;;30.60;20.02;;;;;;;6.53;100.00;101349.59;3571155;40;20497;-59
2021/05/01 06:16:30;;;;;;;30.65;19.05;;;;;;;6.49;100.00;101344.44;3570251;40;20046;-59
2021/05/01 06:18:58;;;;;;;28.13;19.67;;;;;;;6.52;100.00;101348.69;3570858;40;20052;-59
2021/05/01 06:21:24;;;;;;;30.67;20.13;;;;;;;6.69;100.00;101350.31;3571087;40;20028;-59
2021/05/01 06:23:50;;;;;;;26.25;18.33;;;;;;;6.61;100.00;101352.59;3571938;40;20349;-60
2021/05/01 06:26:17;;;;;;;26.75;18.40;;;;;;;6.71;100.00;101348.38;3570610;40;20049;-59
2021/05/01 06:28:45;;;;;;;22.38;18.17;;;;;;;6.91;100.00;101343.56;3571260;40;20065;-59
2021/05/01 06:31:11;;;;;;;27.63;18.70;;;;;;;6.90;100.00;101342.69;3570894;40;20049;-59
2021/05/01 06:33:40;;;;;;;21.05;17.25;;;;;;;6.97;100.00;101345.84;3571322;40;20106;-60
2021/05/01 06:36:09;;;;;;;29.02;16.88;;;;;;;7.05;100.00;101348.00;3567228;40;20130;-59
2021/05/01 06:38:35;;;;;;;24.23;15.87;;;;;;;7.01;100.00;101350.88;3570803;40;20069;-60
2021/05/01 06:41:06;;;;;;;26.30;17.08;;;;;;;7.08;100.00;101350.47;3570503;40;20295;-59
2021/05/01 06:43:44;;;;;;;24.10;17.08;;;;;;;7.21;100.00;101351.38;3571119;40;20048;-58
2021/05/01 06:46:17;;;;;;;25.80;16.95;;;;;;;6.94;100.00;101349.56;3570277;40;20033;-59
2021/05/01 06:48:50;;;;;;;26.45;17.23;;;;;;;6.96;100.00;101347.66;3570757;40;20045;-59
2021/05/01 06:51:17;;;;;;;21.73;16.90;;;;;;;6.92;100.00;101350.63;3569945;40;20078;-59
2021/05/01 06:53:43;;;;;;;25.42;17.52;;;;;;;6.95;100.00;101347.75;3570044;40;20053;-60
2021/05/01 06:56:12;;;;;;;22.02;16.30;;;;;;;7.02;100.00;101349.06;3569069;40;20083;-59
2021/05/01 06:58:40;;;;;;;25.50;18.45;;;;;;;7.29;100.00;101349.06;3569794;40;20052;-59
2021/05/01 07:01:09;;;;;;;24.45;16.83;;;;;;;7.29;100.00;101351.75;3569704;40;20046;-59
2021/05/01 07:03:36;;;;;;;;;;;;;;;7.33;100.00;101352.38;3570718;40;20089;-59
2021/05/01 07:06:03;;;;;;;26.60;16.55;;;;;;;7.31;100.00;101339.09;3569875;40;19932;-61
2021/05/01 07:08:29;;;;;;;19.10;14.30;;;;;;;7.62;100.00;101349.56;3571317;40;20041;-59
2021/05/01 07:10:55;;;;;;;20.00;14.15;;;;;;;7.70;100.00;101348.06;3571041;40;20059;-61
2021/05/01 07:13:23;;;;;;;20.20;13.90;;;;;;;7.75;100.00;101342.38;3569662;40;20072;-58
2021/05/01 07:15:49;;;;;;;14.60;10.95;;;;;;;7.83;100.00;101352.56;3570757;40;20049;-60
2021/05/01 07:18:16;;;;;;;15.90;10.98;;;;;;;7.82;100.00;101350.88;3570811;40;20037;-60
2021/05/01 07:20:42;;;;;;;18.35;11.50;;;;;;;7.98;100.00;101342.59;3570402;40;20064;-59
2021/05/01 07:23:09;;;;;;;16.35;10.25;;;;;;;8.33;100.00;101347.31;3570052;40;20054;-61
2021/05/01 07:25:35;;;;;;;12.63;8.95;;;;;;;8.59;100.00;101345.47;3569576;40;20045;-60
2021/05/01 07:28:04;;;;;;;11.77;8.10;;;;;;;8.26;100.00;101346.91;3569727;40;20061;-59
2021/05/01 07:30:38;;;;;;;12.05;8.50;;;;;;;8.61;100.00;101345.34;3570755;40;20048;-60
2021/05/01 07:33:12;;;;;;;13.30;7.30;;;;;;;8.68;100.00;101342.09;3569493;40;20053;-61
2021/05/01 07:35:41;;;;;;;13.35;7.05;;;;;;;8.44;100.00;101346.56;3570525;40;20121;-59
2021/05/01 07:38:13;;;;;;;11.80;6.60;;;;;;;8.19;100.00;101342.94;3569594;40;20045;-59
2021/05/01 07:40:39;;;;;;;15.52;7.65;;;;;;;8.72;100.00;101348.13;3570540;40;20053;-61
2021/05/01 07:43:07;;;;;;;9.88;6.57;;;;;;;8.68;100.00;101346.63;3570203;40;20059;-59
2021/05/01 07:45:34;;;;;;;11.05;6.90;;;;;;;9.03;100.00;101344.03;3570447;40;20053;-62
2021/05/01 07:48:03;;;;;;;10.82;6.20;;;;;;;9.15;100.00;101346.78;3570654;40;20065;-61
2021/05/01 07:50:30;;;;;;;11.93;6.55;;;;;;;9.28;100.00;101347.56;3568530;40;20404;-60
2021/05/01 07:52:56;;;;;;;11.88;6.35;;;;;;;8.90;100.00;101341.38;3569038;40;20299;-61
2021/05/01 07:55:24;;;;;;;10.15;6.40;;;;;;;9.03;100.00;101344.03;3569370;40;20416;-60
2021/05/01 07:57:51;;;;;;;11.38;6.75;;;;;;;8.92;100.00;101335.91;3570041;40;20053;-61
2021/05/01 08:00:19;;;;;;;11.68;6.47;;;;;;;8.96;100.00;101345.44;3570149;40;20049;-60
2021/05/01 08:02:45;;;;;;;13.50;7.13;;;;;;;9.09;100.00;101348.09;3570314;40;20106;-61
2021/05/01 08:05:12;;;;;;;9.85;6.57;;;;;;;9.20;100.00;101341.91;3569484;40;20328;-60
2021/05/01 08:07:38;;;;;;;9.32;6.25;;;;;;;9.70;100.00;101341.69;3569186;40;20049;-59
2021/05/01 08:10:06;;;;;;;10.70;7.40;;;;;;;10.10;100.00;101335.88;3569568;40;20144;-60
2021/05/01 08:12:33;;;;;;;10.27;6.40;;;;;;;10.06;100.00;101332.59;3570115;40;20059;-60
2021/05/01 08:14:59;;;;;;;7.53;5.95;;;;;;;10.22;100.00;101331.38;3570172;40;20049;-60
2021/05/01 08:17:25;;;;;;;9.82;6.82;;;;;;;10.53;100.00;101332.50;3569302;40;20049;-60
2021/05/01 08:19:52;;;;;;;9.45;6.28;;;;;;;10.36;100.00;101339.22;3571685;40;20037;-60
2021/05/01 08:22:18;;;;;;;8.73;6.10;;;;;;;9.73;100.00;101342.34;3571715;40;20396;-60
2021/05/01 08:24:44;;;;;;;10.93;5.97;;;;;;;9.49;100.00;101346.91;3571533;40;20056;-60
2021/05/01 08:27:10;;;;;;;9.23;6.13;;;;;;;9.16;100.00;101343.97;3571374;40;20385;-60
2021/05/01 08:29:37;;;;;;;9.30;6.20;;;;;;;8.87;100.00;101344.28;3571705;40;20464;-60
2021/05/01 08:32:03;;;;;;;10.43;6.10;;;;;;;8.83;100.00;101350.00;3570681;40;20057;-61
2021/05/01 08:34:29;;;;;;;8.25;6.00;;;;;;;8.69;100.00;101345.66;3571614;40;20072;-59
2021/05/01 08:36:55;;;;;;;9.05;5.50;;;;;;;9.27;100.00;101351.22;3571936;40;20322;-61
2021/05/01 08:39:21;;;;;;;9.13;5.90;;;;;;;9.39;100.00;101344.06;3570864;40;20487;-60
2021/05/01 08:41:47;;;;;;;9.65;6.70;;;;;;;9.60;100.00;101350.47;3570875;40;20327;-61
2021/05/01 08:44:13;;;;;;;11.70;6.00;;;;;;;9.84;100.00;101348.72;3570054;40;20120;-60
2021/05/01 08:46:41;;;;;;;9.30;5.50;;;;;;;9.91;100.00;101336.47;3570372;40;20040;-60
2021/05/01 08:49:08;;;;;;;11.60;6.10;;;;;;;10.57;100.00;101339.34;3572052;40;20466;-62
2021/05/01 08:51:36;;;;;;;11.82;6.00;;;;;;;10.59;100.00;101329.31;3570908;40;20052;-59
2021/05/01 08:54:02;;;;;;;11.88;6.00;;;;;;;10.79;100.00;101334.88;3569926;40;20072;-60
2021/05/01 08:56:28;;;;;;;8.13;5.60;;;;;;;10.80;100.00;101325.84;3570978;40;20297;-60
2021/05/01 08:58:54;;;;;;;9.90;6.03;;;;;;;11.37;100.00;101323.81;3570347;40;20140;-60
2021/05/01 09:01:21;;;;;;;8.80;5.63;;;;;;;11.13;100.00;101322.19;3570660;40;20078;-59
2021/05/01 09:03:50;;;;;;;6.30;5.30;;;;;;;11.30;100.00;101328.00;3570618;40;20427;-63
2021/05/01 09:06:16;;;;;;;9.27;5.20;;;;;;;10.99;100.00;101328.72;3568822;40;20057;-62
2021/05/01 09:08:42;;;;;;;9.80;5.63;;;;;;;10.44;100.00;101333.25;3571598;40;20303;-62
2021/05/01 09:11:09;;;;;;;9.68;5.43;;;;;;;9.93;100.00;101337.22;3570861;40;20571;-60
2021/05/01 09:13:46;;;;;;;10.10;5.65;;;;;;;9.78;100.00;101345.50;3571450;40;20055;-62
2021/05/01 09:16:15;;;;;;;11.35;7.13;;;;;;;9.15;100.00;101338.72;3570920;40;20282;-62
2021/05/01 09:18:48;;;;;;;9.68;7.03;;;;;;;9.06;100.00;101343.78;3571202;40;20041;-63
2021/05/01 09:21:17;;;;;;;10.73;7.38;;;;;;;9.09;100.00;101343.56;3570377;40;20080;-62
2021/05/01 09:23:43;;;;;;;9.15;7.28;;;;;;;8.97;100.00;101339.13;3570955;40;20042;-62
2021/05/01 09:26:09;;;;;;;12.82;7.35;;;;;;;9.24;100.00;101346.06;3568142;40;20057;-60
2021/05/01 09:28:40;;;;;;;11.60;7.78;;;;;;;9.40;100.00;101343.94;3568971;40;20049;-60
2021/05/01 09:31:07;;;;;;;10.70;7.88;;;;;;;9.22;100.00;101348.88;3569860;40;20049;-60
2021/05/01 09:33:35;;;;;;;10.52;7.47;;;;;;;9.93;100.00;101342.59;3571524;40;20060;-60
2021/05/01 09:36:07;;;;;;;11.43;7.32;;;;;;;10.25;100.00;101345.44;3571330;40;20096;-60
2021/05/01 09:38:36;;;;;;;12.30;7.68;;;;;;;10.33;100.00;101344.81;3570977;40;20053;-59
2021/05/01 09:41:12;;;;;;;10.73;6.53;;;;;;;10.38;100.00;101344.50;3570841;40;20049;-60
2021/05/01 09:43:55;;;;;;;8.82;6.68;;;;;;;9.67;100.00;101342.78;3571308;40;20077;-62
2021/05/01 09:46:21;;;;;;;11.27;7.25;;;;;;;9.54;100.00;101342.03;3569049;40;20502;-59
2021/05/01 09:49:02;;;;;;;8.13;5.88;;;;;;;9.86;100.00;101347.59;3571532;40;20049;-60
2021/05/01 09:51:31;;;;;;;10.32;6.18;;;;;;;9.87;100.00;101341.25;3569966;40;20057;-61
2021/05/01 09:53:59;;;;;;;10.82;6.43;;;;;;;9.70;100.00;101337.19;3570531;40;20403;-62
2021/05/01 09:56:27;;;;;;;8.02;6.60;;;;;;;9.67;100.00;101337.41;3570180;40;20416;-60
2021/05/01 09:58:53;;;;;;;9.43;6.47;;;;;;;9.50;100.00;101341.41;3571986;40;20072;-60
2021/05/01 10:01:19;;;;;;;8.55;5.45;;;;;;;9.29;100.00;101333.16;3570788;40;20380;-59
2021/05/01 10:03:45;;;;;;;8.10;6.53;;;;;;;9.51;100.00;101334.19;3569834;40;20100;-61
2021/05/01 10:06:15;;;;;;;7.25;5.68;;;;;;;9.90;100.00;101324.88;3571551;40;20037;-59
2021/05/01 10:08:42;;;;;;;7.68;6.00;;;;;;;10.05;100.00;101336.25;3571635;40;20041;-59
2021/05/01 10:11:12;;;;;;;7.93;5.75;;;;;;;9.86;100.00;101336.00;3571359;40;20416;-61
2021/05/01 10:13:47;;;;;;;7.80;5.68;;;;;;;9.84;100.00;101335.28;3572078;40;20061;-60
2021/05/01 10:16:13;;;;;;;6.22;5.63;;;;;;;10.23;100.00;101333.97;3570801;40;20065;-62
2021/05/01 10:19:01;;;;;;;7.10;5.57;;;;;;;10.26;100.00;101331.03;3571831;40;20052;-59
2021/05/01 10:21:27;;;;;;;10.55;4.95;;;;;;;10.46;100.00;101326.75;3571910;40;20045;-61
2021/05/01 10:23:55;;;;;;;5.80;4.30;;;;;;;10.73;100.00;101328.16;3571413;40;20060;-59
2021/05/01 10:26:23;;;;;;;6.53;4.95;;;;;;;11.14;100.00;101323.88;3571753;40;20076;-60
2021/05/01 10:28:52;;;;;;;8.57;4.30;;;;;;;11.46;100.00;101323.00;3572065;40;20296;-60
2021/05/01 10:31:20;;;;;;;6.82;4.55;;;;;;;11.66;100.00;101318.63;3571923;40;20092;-62
2021/05/01 10:33:49;;;;;;;8.43;4.50;;;;;;;11.87;100.00;101324.00;3571468;40;20049;-59
2021/05/01 10:36:24;;;;;;;6.78;4.22;;;;;;;11.56;100.00;101323.94;3571393;40;20057;-59
2021/05/01 10:38:58;;;;;;;5.35;3.83;;;;;;;12.28;100.00;101316.00;3571395;40;20183;-59
2021/05/01 10:41:29;;;;;;;6.65;4.57;;;;;;;12.21;100.00;101315.66;3570755;40;20053;-59
2021/05/01 10:43:57;;;;;;;5.20;4.18;;;;;;;11.65;100.00;101318.75;3571765;40;20045;-62
2021/05/01 10:46:24;;;;;;;9.07;4.50;;;;;;;12.24;100.00;101322.66;3571711;40;20355;-59
2021/05/01 10:48:53;;;;;;;5.03;3.72;;;;;;;12.15;100.00;101316.22;3570862;40;20126;-59
2021/05/01 10:51:21;;;;;;;8.48;5.60;;;;;;;12.14;100.00;101314.50;3571075;40;20071;-62
2021/05/01 10:53:48;;;;;;;9.05;6.30;;;;;;;12.02;100.00;101318.28;3571609;40;20053;-61
2021/05/01 10:56:15;;;;;;;8.63;6.25;;;;;;;11.87;100.00;101318.59;3570243;40;20051;-61
2021/05/01 10:58:44;;;;;;;8.80;6.07;;;;;;;11.48;100.00;101329.13;3570751;40;20431;-60
2021/05/01 11:01:11;;;;;;;;;;;;;;;11.18;100.00;101327.19;3570384;40;20049;-59
2021/05/01 11:03:47;;;;;;;8.55;6.00;;;;;;;10.98;100.00;101334.22;3570758;40;20294;-61
2021/05/01 11:06:21;;;;;;;7.05;4.90;;;;;;;10.42;100.00;101335.19;3570555;40;20053;-60
2021/05/01 11:08:56;;;;;;;7.88;5.50;;;;;;;10.01;100.00;101334.78;3571146;40;20447;-59
2021/05/01 11:11:29;;;;;;;8.88;5.50;;;;;;;10.10;100.00;101334.06;3571208;40;20052;-59
2021/05/01 11:13:56;;;;;;;11.65;5.35;;;;;;;10.12;100.00;101337.47;3571029;40;20075;-61
2021/05/01 11:16:28;;;;;;;8.77;5.03;;;;;;;10.51;100.00;101326.38;3570435;40;20054;-60